Terminal Aerodrome Forecast
Issued by NWS

Home | Current Version | Previous Version | Text Only | Print | Product List | Glossary On
Versions: 1 2 3 4 5 6 7 8 9 10 11 12 13 14 15 16 17 18 19 20 21 22 23 24 25
000
FTUS41 KRLX 011100
TAFCKB
TAF
KCKB 011123Z 0112/0212 00000KT 3SM -SN BR OVC024
     FM011500 17004KT 3SM -RASN BR OVC020
     FM011700 15004KT 4SM -RA BR OVC015
     FM011900 14004KT 5SM -RA BR OVC035
     FM020300 17009KT 2SM -RA BR OVC015
     FM020800 22009G14KT 2SM -RA BR OVC008=

USA.gov is the U.S. government's official web portal to all federal, state and local government web resources and services.